This is the latest recevied weather packets stored in our database for station/object KE8DDT-7. If no packets are shown the sender has not sent any weather packets the latest 10 day(s).
| Time | Temp. | Humidity | Pressure | Rain* | Wind** | Luminosity | Snow |
|---|---|---|---|---|---|---|---|
| 1778104059 | 11.11° C | 45% | 1004.2 hPa | 0 mm | - | 156 W/m² | - |
| 1778103759 | 11.67° C | 47% | 1004.2 hPa | 0 mm | - | 229 W/m² | - |
| 1778103459 | 11.11° C | 46% | 1004.2 hPa | 0 mm | - | 176 W/m² | - |
| 1778103159 | 11.67° C | 46% | 1004.1 hPa | 0 mm | - | 193 W/m² | - |
| 1778102859 | 11.67° C | 46% | 1004.2 hPa | 0 mm | - | 186 W/m² | - |
| 1778102562 | 11.67° C | 47% | 1004.2 hPa | 0 mm | - | 199 W/m² | - |
| 1778102259 | 11.67° C | 45% | 1004.2 hPa | 0 mm | - | 221 W/m² | - |
| 1778101959 | 11.11° C | 47% | 1004.1 hPa | 0 mm | - | 244 W/m² | - |
| 1778101659 | 11.11° C | 46% | 1004.3 hPa | 0 mm | - | 190 W/m² | - |
| 1778101359 | 11.11° C | 48% | 1004.3 hPa | 0 mm | - | 211 W/m² | - |
| 1778101059 | 11.11° C | 47% | 1004.1 hPa | 0 mm | - | 225 W/m² | - |
| 1778100759 | 11.11° C | 45% | 1004.2 hPa | 0 mm | - | 171 W/m² | - |
| 1778100459 | 11.11° C | 46% | 1004.2 hPa | 0 mm | - | 179 W/m² | - |
| 1778100159 | 11.11° C | 47% | 1004.3 hPa | 0 mm | - | 209 W/m² | - |
| 1778099860 | 11.11° C | 45% | 1004.2 hPa | 0 mm | - | 239 W/m² | - |
| 1778099559 | 11.11° C | 46% | 1004.2 hPa | 0 mm | - | 251 W/m² | - |
| 1778099259 | 11.11° C | 46% | 1004.2 hPa | 0 mm | - | 283 W/m² | - |
| 1778098959 | 11.11° C | 46% | 1004.4 hPa | 0 mm | - | 241 W/m² | - |
| 1778098659 | 11.11° C | 47% | 1004.3 hPa | 0 mm | - | 234 W/m² | - |
| 1778098359 | 11.11° C | 46% | 1004.2 hPa | 0 mm | - | 278 W/m² | - |
| 1778097978 | 11.11° C | 46% | 1004.3 hPa | 0 mm | - | 250 W/m² | - |
| 1778097399 | 11.11° C | 46% | 1004.4 hPa | 0 mm | - | 262 W/m² | - |
| 1778097099 | 11.11° C | 45% | 1004.5 hPa | 0 mm | - | 253 W/m² | - |
| 1778096799 | 11.11° C | 45% | 1004.6 hPa | 0 mm | - | 236 W/m² | - |
| 1778096499 | 11.11° C | 46% | 1004.5 hPa | 0 mm | - | 264 W/m² | - |
* Rain latest hour (hover to see other rain measurements)
** Current wind speed in m/s (hover to see current wind gust speed)